Ledyard, IA (50556)

2:43 AM CDT on August 24, 2017 (GMT -0500)
The Barn | | Change Station

Elev 1178 ft 43.34 °N, 94.22 °W | Updated 20 seconds ago

Rain
Rain
60.8 °F
Feels Like 60.8 °F
N
0.0
Wind Variable Wind from North

Today
High -- | Low -- °F
--% Chance of Precip.
Yesterday
High -- | Low -- °F
Precip. -- in
Pressure 30.06 in
Visibility 10.0 miles
Clouds Mostly Cloudy 9000 ft
Dew Point 57 °F
Humidity 88%
Rainfall 0.00 in
Snow Depth Not available.
6:32 AM 8:04 PM
Waxing Crescent, 8% visible
METAR KFRM 240656Z AUTO 18006KT 10SM BKN090 16/13 A3006 RMK AO2 SLP177 T01610133 $
Pressure 30.06 in
Visibility 10.0 miles
Clouds Mostly Cloudy 9000 ft
Dew Point 57 °F
Humidity 88%
Rainfall 0.00 in
Snow Depth Not available.
6:32 AM 8:04 PM
Waxing Crescent, 8% visible
METAR KFRM 240656Z AUTO 18006KT 10SM BKN090 16/13 A3006 RMK AO2 SLP177 T01610133 $

Get Severe Weather Alerts

Thanks for signing up!

Be on the lookout for a verification email in your inbox.

You'll start receiving the daily forecast at 6 AM.

×

10-Day Weather Forecast

Almanac

Astronomy

Aug. 24, 2017 Rise Set
Actual Time
Civil Twilight
Nautical Twilight
Astronomical Twilight
Moon
Length of Visible Light
Length of Day
Tomorrow will be .
, % of the Moon is Illuminated

Today's Extremes

State Highs State Lows

Community

WunderPhotos

Category 6

Welcome to Category 6. This is the collective home for Weather Underground's featured writeups by Dr. Jeff Masters (right), Bob Henson (left), Chris Burt, and other regular contributors.

Nearby

Air Quality

  Air Quality AQ Index Pollutant
Not available.

Snow Depth

Station Depth Elevation

Earthquake Activity

City Distance Mag. Time & Date
Minimum magnitude displayed is 2.5.

Coastal Water Temperatures

Place Temperature

Stations

Nearby Weather Stations

Station Location Temp. Windchill Dew Point Humidity Wind Precip. Elev Updated Type
                   

Watches & Warnings

There are currently no watches in effect.